Time;durP1;ratioP1;P1;durP2;ratioP2;P2;SDS_P1;SDS_P2;PMS_P1;PMS_P2;Temp;Humidity;BMP_temperature;BMP_pressure;BME280_temperature;BME280_humidity;BME280_pressure;Samples;Min_cycle;Max_cycle;Signal;HPM_P1;HPM_P2
2024/03/13 00:00:22;;;;;;;2.75;2.00;;;8.00;99.90;;;;;;5023701;28;20042;-63
2024/03/13 00:02:49;;;;;;;3.20;1.80;;;8.00;99.90;;;;;;5015926;28;20046;-63
2024/03/13 00:05:17;;;;;;;1.85;1.60;;;8.00;99.90;;;;;;5018916;28;20057;-63
2024/03/13 00:07:47;;;;;;;2.20;1.83;;;8.00;99.90;;;;;;5022453;28;20045;-63
2024/03/13 00:10:14;;;;;;;4.43;2.08;;;8.00;99.90;;;;;;5023537;28;20053;-63
2024/03/13 00:12:42;;;;;;;2.47;1.70;;;8.00;99.90;;;;;;5023179;28;20049;-63
2024/03/13 00:15:10;;;;;;;2.28;1.77;;;8.00;99.90;;;;;;5021055;28;20060;-62
2024/03/13 00:17:37;;;;;;;2.35;1.70;;;8.00;99.90;;;;;;5016988;28;20115;-63
2024/03/13 00:20:05;;;;;;;1.85;1.60;;;8.00;99.90;;;;;;5020312;28;20050;-63
2024/03/13 00:22:36;;;;;;;2.30;1.80;;;8.00;99.90;;;;;;5023599;28;20387;-63
2024/03/13 00:25:10;;;;;;;2.50;1.95;;;8.00;99.90;;;;;;5022954;28;20064;-63
2024/03/13 00:27:39;;;;;;;5.70;1.88;;;8.00;99.90;;;;;;5021607;28;20050;-63
2024/03/13 00:30:08;;;;;;;2.63;1.85;;;8.00;99.90;;;;;;5021852;28;20049;-62
2024/03/13 00:32:35;;;;;;;2.73;1.67;;;8.00;99.90;;;;;;5024646;28;20049;-62
2024/03/13 00:35:03;;;;;;;3.30;1.85;;;8.00;99.90;;;;;;5020694;28;20091;-62
2024/03/13 00:37:30;;;;;;;1.95;1.50;;;8.00;99.90;;;;;;5022751;28;20072;-62
2024/03/13 00:39:58;;;;;;;4.38;1.60;;;8.00;99.90;;;;;;5022885;28;20045;-61
2024/03/13 00:42:25;;;;;;;3.28;1.85;;;8.00;99.90;;;;;;5018258;28;20050;-61
2024/03/13 00:44:53;;;;;;;1.80;1.50;;;8.10;99.90;;;;;;5022311;28;20072;-62
2024/03/13 00:47:22;;;;;;;2.28;1.80;;;8.10;99.90;;;;;;5029312;28;20048;-60
2024/03/13 00:49:52;;;;;;;2.38;2.13;;;8.10;99.90;;;;;;5022321;28;20057;-61
2024/03/13 00:52:20;;;;;;;3.72;1.73;;;8.10;99.90;;;;;;5028486;28;20041;-61
2024/03/13 00:54:47;;;;;;;2.30;1.67;;;8.10;99.90;;;;;;5022251;28;20109;-61
2024/03/13 00:57:17;;;;;;;4.93;1.70;;;8.10;99.90;;;;;;5023609;28;20053;-62
2024/03/13 00:59:44;;;;;;;3.17;2.00;;;8.10;99.90;;;;;;5025006;28;20045;-61
2024/03/13 01:02:12;;;;;;;2.15;1.70;;;8.10;99.90;;;;;;5023572;28;20052;-62
2024/03/13 01:04:39;;;;;;;2.53;1.70;;;8.10;99.90;;;;;;5024570;28;20053;-61
2024/03/13 01:07:06;;;;;;;4.10;1.58;;;8.10;99.90;;;;;;5024983;28;20498;-61
2024/03/13 01:09:34;;;;;;;2.03;1.50;;;8.10;99.90;;;;;;5024617;28;20057;-62
2024/03/13 01:12:01;;;;;;;3.13;1.73;;;8.10;99.90;;;;;;5026917;28;20055;-61
2024/03/13 01:14:28;;;;;;;2.85;1.70;;;8.10;99.90;;;;;;5027834;28;20045;-62
2024/03/13 01:16:56;;;;;;;2.70;1.55;;;8.10;99.90;;;;;;5025650;28;20176;-62
2024/03/13 01:19:23;;;;;;;4.13;1.67;;;8.10;99.90;;;;;;5025660;28;20048;-61
2024/03/13 01:21:54;;;;;;;4.05;1.70;;;8.10;99.90;;;;;;5022615;28;20409;-61
2024/03/13 01:24:22;;;;;;;3.47;1.50;;;8.10;99.90;;;;;;5028485;28;20494;-61
2024/03/13 01:26:49;;;;;;;3.80;1.55;;;8.10;99.90;;;;;;5022277;28;20050;-61
2024/03/13 01:29:16;;;;;;;2.05;1.58;;;8.10;99.90;;;;;;5025481;28;20052;-61
2024/03/13 01:31:43;;;;;;;2.42;1.70;;;8.10;99.90;;;;;;5023661;28;20496;-62
2024/03/13 01:34:10;;;;;;;2.28;1.88;;;8.20;99.90;;;;;;5025096;28;20112;-61
2024/03/13 01:39:26;;;;;;;3.85;2.28;;;8.20;99.90;;;;;;5024433;28;20048;-62
2024/03/13 01:56:27;;;;;;;5.13;2.08;;;8.30;99.90;;;;;;5019938;28;20045;-61
2024/03/13 01:59:20;;;;;;;2.78;2.08;;;8.40;99.90;;;;;;5021685;28;20046;-62
2024/03/13 02:04:34;;;;;;;2.47;2.00;;;8.30;99.90;;;;;;5018747;28;20152;-62
2024/03/13 02:07:02;;;;;;;4.80;2.28;;;8.40;99.90;;;;;;5025586;28;20042;-62
2024/03/13 02:09:30;;;;;;;7.22;2.40;;;8.40;99.90;;;;;;5005816;28;20049;-62
2024/03/13 02:11:57;;;;;;;4.25;2.50;;;8.40;99.90;;;;;;5024042;28;20045;-62
2024/03/13 02:14:23;;;;;;;3.47;2.50;;;8.40;99.90;;;;;;5023588;28;20494;-62
2024/03/13 02:16:53;;;;;;;4.30;2.30;;;8.40;99.90;;;;;;5022138;28;20048;-62
2024/03/13 02:19:21;;;;;;;4.07;2.65;;;8.40;99.90;;;;;;5025171;28;20102;-62
2024/03/13 02:21:53;;;;;;;2.58;2.13;;;8.40;99.90;;;;;;5025674;28;20049;-62
2024/03/13 02:24:20;;;;;;;2.80;2.08;;;8.40;99.90;;;;;;5024922;28;20049;-63
2024/03/13 02:26:47;;;;;;;3.08;2.40;;;8.40;99.90;;;;;;5022808;28;20049;-62
2024/03/13 02:29:14;;;;;;;4.25;2.40;;;8.40;99.90;;;;;;5023026;28;20076;-62
2024/03/13 02:31:41;;;;;;;4.13;2.72;;;8.40;99.90;;;;;;5023081;28;20045;-62
2024/03/13 02:34:09;;;;;;;6.28;2.40;;;8.40;99.90;;;;;;5024998;28;20049;-62
2024/03/13 02:36:36;;;;;;;2.78;2.10;;;8.40;99.90;;;;;;5027265;28;20516;-61
2024/03/13 02:39:03;;;;;;;3.22;2.45;;;8.40;99.90;;;;;;5022453;28;20091;-62
2024/03/13 02:41:31;;;;;;;3.35;2.55;;;8.40;99.90;;;;;;5020846;28;20376;-62
2024/03/13 02:43:59;;;;;;;3.40;2.65;;;8.40;99.90;;;;;;5021973;28;20041;-62
2024/03/13 02:46:26;;;;;;;3.45;2.75;;;8.40;99.90;;;;;;5027227;28;20076;-62
2024/03/13 02:48:53;;;;;;;4.15;2.42;;;8.50;99.90;;;;;;5021480;28;20059;-62
2024/03/13 02:51:20;;;;;;;4.28;2.60;;;8.50;99.90;;;;;;5019674;28;20076;-62
2024/03/13 02:53:48;;;;;;;2.75;2.50;;;8.40;99.90;;;;;;5020409;28;20050;-62
2024/03/13 02:56:15;;;;;;;3.28;2.38;;;8.40;99.90;;;;;;5022524;28;20133;-62
2024/03/13 02:58:45;;;;;;;4.05;2.22;;;8.40;99.90;;;;;;5021373;28;20053;-62
2024/03/13 03:01:12;;;;;;;7.13;2.45;;;8.40;99.90;;;;;;5024457;28;20073;-62
2024/03/13 03:03:39;;;;;;;6.93;2.47;;;8.40;99.90;;;;;;5021586;28;20487;-62
2024/03/13 03:06:07;;;;;;;3.35;2.47;;;8.40;99.90;;;;;;5024019;28;20396;-62
2024/03/13 03:08:37;;;;;;;6.80;2.67;;;8.40;99.90;;;;;;5024855;28;20049;-62
2024/03/13 03:11:04;;;;;;;4.30;2.40;;;8.50;99.90;;;;;;5020399;28;20046;-62
2024/03/13 03:13:30;;;;;;;3.35;2.03;;;8.50;99.90;;;;;;5022801;28;20077;-62
2024/03/13 03:15:59;;;;;;;4.78;2.10;;;8.50;99.90;;;;;;5022101;28;20099;-62
2024/03/13 03:18:27;;;;;;;6.47;2.38;;;8.50;99.90;;;;;;5022906;28;20048;-62
2024/03/13 03:20:54;;;;;;;4.95;2.13;;;8.50;99.90;;;;;;5024724;28;20133;-62
2024/03/13 03:23:21;;;;;;;2.67;2.13;;;8.50;99.90;;;;;;5022840;28;20111;-62
2024/03/13 03:25:47;;;;;;;3.75;1.83;;;8.50;99.90;;;;;;5024221;28;20058;-62
2024/03/13 03:28:16;;;;;;;3.78;2.00;;;8.50;99.90;;;;;;5026052;28;20586;-62
2024/03/13 03:30:46;;;;;;;3.00;2.10;;;8.50;99.90;;;;;;5024746;28;20045;-62
2024/03/13 03:33:13;;;;;;;3.00;1.92;;;8.60;99.90;;;;;;5023310;28;20041;-62
2024/03/13 03:35:40;;;;;;;4.32;2.17;;;8.60;99.90;;;;;;5025343;28;20053;-62
2024/03/13 03:38:07;;;;;;;5.57;2.20;;;8.60;99.90;;;;;;5027149;28;20057;-62
2024/03/13 03:40:34;;;;;;;3.63;2.42;;;8.60;99.90;;;;;;5026554;28;20081;-62
2024/03/13 03:43:00;;;;;;;2.60;1.90;;;8.60;99.90;;;;;;5025832;28;20041;-63
2024/03/13 03:45:29;;;;;;;3.40;2.55;;;8.60;99.90;;;;;;5022580;28;20053;-63
2024/03/13 03:47:55;;;;;;;2.40;2.03;;;8.60;99.90;;;;;;5019925;28;20056;-63
2024/03/13 03:50:32;;;;;;;3.58;2.50;;;8.60;99.90;;;;;;5023903;28;20803;-63
2024/03/13 03:52:59;;;;;;;4.07;2.83;;;8.60;99.90;;;;;;5026368;28;20061;-63
2024/03/13 03:55:26;;;;;;;4.80;2.90;;;8.60;99.90;;;;;;5026674;28;20046;-63
2024/03/13 03:57:53;;;;;;;4.80;2.60;;;8.60;99.90;;;;;;5021875;28;20132;-63
2024/03/13 04:00:22;;;;;;;3.95;2.50;;;8.60;99.90;;;;;;5021917;28;20055;-63
2024/03/13 04:02:51;;;;;;;4.45;2.03;;;8.60;99.90;;;;;;5022379;28;20164;-63
2024/03/13 04:05:19;;;;;;;4.30;2.38;;;8.70;99.90;;;;;;5024688;28;20430;-63
2024/03/13 04:07:49;;;;;;;2.83;2.20;;;8.70;99.90;;;;;;5023782;28;20116;-63
2024/03/13 04:10:16;;;;;;;3.35;2.30;;;8.70;99.90;;;;;;5022991;28;20053;-63
2024/03/13 04:12:44;;;;;;;3.67;2.50;;;8.70;99.90;;;;;;5022066;28;20051;-63
2024/03/13 04:15:12;;;;;;;3.67;2.67;;;8.70;99.90;;;;;;5025856;28;20046;-64
2024/03/13 04:17:39;;;;;;;5.45;2.35;;;8.70;99.90;;;;;;5025078;28;20053;-64
2024/03/13 04:20:17;;;;;;;3.80;2.08;;;8.70;99.90;;;;;;5025923;28;20045;-63
2024/03/13 04:22:45;;;;;;;3.75;2.13;;;8.70;99.90;;;;;;5030334;28;20752;-64
2024/03/13 04:25:13;;;;;;;5.20;2.50;;;8.70;99.90;;;;;;5027353;28;20050;-63
2024/03/13 04:27:40;;;;;;;5.40;2.08;;;8.70;99.90;;;;;;5029077;28;20171;-64
2024/03/13 04:30:07;;;;;;;4.72;2.40;;;8.70;99.90;;;;;;5032717;28;20060;-64
2024/03/13 04:32:35;;;;;;;3.00;2.40;;;8.70;99.90;;;;;;5026364;28;20134;-65
2024/03/13 04:35:03;;;;;;;4.35;2.63;;;8.80;99.90;;;;;;5030049;28;20041;-64
2024/03/13 04:37:30;;;;;;;4.75;2.95;;;8.80;99.90;;;;;;5025293;28;20045;-64
2024/03/13 04:39:59;;;;;;;2.88;1.90;;;8.80;99.90;;;;;;5028015;28;20106;-64
2024/03/13 04:42:27;;;;;;;2.83;2.03;;;8.80;99.90;;;;;;5030332;28;20046;-64
2024/03/13 04:44:55;;;;;;;4.10;2.08;;;8.80;99.90;;;;;;5027775;28;20050;-64
2024/03/13 04:47:22;;;;;;;3.17;2.10;;;8.80;99.90;;;;;;5029719;28;20500;-64
2024/03/13 04:49:49;;;;;;;4.15;1.95;;;8.80;99.90;;;;;;5029921;28;20060;-64
2024/03/13 04:52:16;;;;;;;5.50;2.08;;;8.80;99.90;;;;;;5029316;28;20133;-64
2024/03/13 04:54:43;;;;;;;3.90;1.70;;;8.80;99.90;;;;;;5028037;28;20045;-64
2024/03/13 04:57:09;;;;;;;3.20;2.17;;;8.80;99.90;;;;;;5026940;28;20045;-64
2024/03/13 04:59:36;;;;;;;4.43;2.28;;;8.80;99.90;;;;;;5023616;28;20053;-64
2024/03/13 05:02:03;;;;;;;4.40;2.05;;;8.80;99.90;;;;;;5029207;28;20053;-64
2024/03/13 05:04:33;;;;;;;3.45;2.00;;;8.80;99.90;;;;;;5026781;28;20466;-64
2024/03/13 05:07:02;;;;;;;3.08;2.10;;;8.80;99.90;;;;;;5026322;28;20052;-64
2024/03/13 05:09:29;;;;;;;3.97;2.03;;;8.80;99.90;;;;;;5027917;28;20103;-64
2024/03/13 05:11:56;;;;;;;4.97;1.85;;;8.80;99.90;;;;;;5027584;28;20049;-64
2024/03/13 05:14:23;;;;;;;2.85;2.30;;;8.80;99.90;;;;;;5028720;28;20143;-64
2024/03/13 05:16:50;;;;;;;4.93;2.17;;;8.90;99.90;;;;;;5026714;28;20077;-64
2024/03/13 05:19:18;;;;;;;4.63;2.17;;;8.80;99.90;;;;;;5023125;28;20100;-64
2024/03/13 05:21:45;;;;;;;4.88;2.50;;;8.80;99.90;;;;;;5027829;28;20100;-64
2024/03/13 05:24:15;;;;;;;4.25;2.60;;;8.80;99.90;;;;;;5028941;28;20046;-63
2024/03/13 05:26:42;;;;;;;7.40;4.20;;;8.80;99.90;;;;;;5030321;28;20049;-64
2024/03/13 05:29:09;;;;;;;4.50;3.03;;;8.90;99.90;;;;;;5027119;28;20111;-64
2024/03/13 05:31:36;;;;;;;3.78;2.63;;;8.80;99.90;;;;;;5028777;28;20046;-63
2024/03/13 05:34:04;;;;;;;4.57;2.17;;;8.90;99.90;;;;;;5027857;28;20037;-63
2024/03/13 05:36:32;;;;;;;7.25;2.20;;;8.90;99.90;;;;;;5008593;28;20041;-64
2024/03/13 05:38:59;;;;;;;2.90;2.22;;;8.90;99.90;;;;;;5026469;28;20103;-64
2024/03/13 05:41:26;;;;;;;5.10;2.28;;;8.90;99.90;;;;;;5025241;28;20293;-64
2024/03/13 05:43:52;;;;;;;4.40;2.17;;;8.90;99.90;;;;;;5026715;28;20874;-64
2024/03/13 05:46:19;;;;;;;4.13;2.05;;;8.90;99.90;;;;;;5025065;28;20103;-64
2024/03/13 05:48:46;;;;;;;2.38;1.92;;;8.90;99.90;;;;;;5025994;28;20515;-64
2024/03/13 05:51:14;;;;;;;3.08;2.20;;;8.90;99.90;;;;;;5025145;28;20519;-65
2024/03/13 05:53:40;;;;;;;5.00;2.15;;;8.90;99.90;;;;;;5025127;28;20057;-64
2024/03/13 05:56:07;;;;;;;6.45;1.90;;;9.00;99.90;;;;;;5022488;28;20096;-64
2024/03/13 05:58:34;;;;;;;4.78;2.25;;;9.00;99.90;;;;;;5024847;28;20399;-64
2024/03/13 06:01:04;;;;;;;3.33;2.47;;;9.00;99.90;;;;;;5028867;28;20080;-64
2024/03/13 06:03:31;;;;;;;3.45;1.90;;;9.00;99.90;;;;;;5025007;28;20423;-64
2024/03/13 06:05:57;;;;;;;2.97;2.15;;;9.00;99.90;;;;;;5028384;28;20057;-64
2024/03/13 06:08:24;;;;;;;3.28;2.00;;;9.10;99.90;;;;;;5024163;28;20049;-64
2024/03/13 06:10:51;;;;;;;4.25;1.95;;;9.10;99.90;;;;;;5021058;28;20096;-65
2024/03/13 06:13:18;;;;;;;4.10;2.10;;;9.10;99.90;;;;;;5026389;28;20049;-64
2024/03/13 06:15:45;;;;;;;3.10;2.17;;;9.10;99.90;;;;;;5023055;28;20046;-64
2024/03/13 06:18:13;;;;;;;3.50;1.88;;;9.10;99.90;;;;;;5027121;28;20103;-64
2024/03/13 06:20:39;;;;;;;2.47;1.67;;;9.10;99.90;;;;;;5022145;28;20103;-64
2024/03/13 06:23:06;;;;;;;2.42;1.60;;;9.10;99.90;;;;;;5023940;28;20330;-64
2024/03/13 06:25:39;;;;;;;6.40;2.00;;;9.10;99.90;;;;;;5024192;28;20060;-65
2024/03/13 06:30:51;;;;;;;3.60;1.85;;;9.10;99.90;;;;;;5026287;28;20056;-63
2024/03/13 06:33:18;;;;;;;3.55;1.85;;;9.10;99.90;;;;;;5022751;28;20132;-63
2024/03/13 06:35:45;;;;;;;2.78;1.90;;;9.10;99.90;;;;;;5025946;28;20059;-65
2024/03/13 06:38:12;;;;;;;3.17;1.80;;;9.10;99.90;;;;;;5027034;28;20042;-63
2024/03/13 06:40:42;;;;;;;2.60;1.77;;;9.10;99.90;;;;;;5026324;28;20088;-63
2024/03/13 06:43:09;;;;;;;3.58;2.08;;;9.10;99.90;;;;;;5024210;28;20045;-63
2024/03/13 06:45:36;;;;;;;2.80;1.98;;;9.10;99.90;;;;;;5024621;28;20054;-63
2024/03/13 06:48:06;;;;;;;1.92;1.27;;;9.20;99.90;;;;;;5028356;28;20053;-63
2024/03/13 06:50:33;;;;;;;1.65;1.50;;;9.20;99.90;;;;;;5026005;28;20421;-62
2024/03/13 06:53:02;;;;;;;1.70;1.58;;;9.20;99.90;;;;;;5027043;28;20041;-62
2024/03/13 06:55:29;;;;;;;2.65;1.70;;;9.20;99.90;;;;;;5026912;28;20049;-62
2024/03/13 06:57:56;;;;;;;1.80;1.60;;;9.20;99.90;;;;;;5026100;28;20095;-62
2024/03/13 07:00:27;;;;;;;2.97;1.85;;;9.30;99.90;;;;;;5022372;28;20045;-62
2024/03/13 07:02:59;;;;;;;1.98;1.67;;;9.30;99.90;;;;;;5020187;28;20056;-62
2024/03/13 07:05:26;;;;;;;3.13;1.52;;;9.20;99.90;;;;;;5025737;28;20045;-62
2024/03/13 07:07:54;;;;;;;2.13;1.80;;;9.30;99.90;;;;;;5026796;28;20108;-62
2024/03/13 07:10:21;;;;;;;1.90;1.70;;;9.30;99.90;;;;;;5023878;28;20053;-62
2024/03/13 07:12:48;;;;;;;3.22;1.80;;;9.30;99.90;;;;;;5025726;28;20057;-62
2024/03/13 07:15:15;;;;;;;4.18;2.10;;;9.30;99.90;;;;;;5023265;28;20053;-62
2024/03/13 07:17:45;;;;;;;5.45;2.20;;;9.30;99.90;;;;;;5027711;28;20055;-62
2024/03/13 07:20:13;;;;;;;4.13;2.60;;;9.30;99.90;;;;;;5026024;28;20073;-62
2024/03/13 07:22:41;;;;;;;2.75;2.13;;;9.30;99.90;;;;;;5024978;28;20421;-62
2024/03/13 07:25:09;;;;;;;2.90;2.30;;;9.30;99.90;;;;;;5024795;28;20099;-62
2024/03/13 07:27:37;;;;;;;3.92;2.10;;;9.40;99.90;;;;;;5024977;28;20045;-62
2024/03/13 07:30:05;;;;;;;2.63;2.22;;;9.40;99.90;;;;;;5025025;28;20164;-62
2024/03/13 07:32:32;;;;;;;4.40;2.45;;;9.40;99.90;;;;;;5023672;28;20661;-62
2024/03/13 07:34:59;;;;;;;5.63;2.35;;;9.50;99.90;;;;;;5006898;28;20094;-62
2024/03/13 07:37:26;;;;;;;2.75;2.33;;;9.50;99.90;;;;;;5024204;28;20092;-62
2024/03/13 07:39:53;;;;;;;5.20;2.50;;;9.50;99.90;;;;;;5019241;28;20041;-62
2024/03/13 07:42:19;;;;;;;5.68;2.72;;;9.50;99.90;;;;;;5027049;28;20045;-62
2024/03/13 07:44:47;;;;;;;5.20;2.80;;;9.50;99.90;;;;;;5025002;28;20053;-62
2024/03/13 07:47:13;;;;;;;3.45;3.15;;;9.50;99.90;;;;;;5026285;28;20053;-62
2024/03/13 07:49:40;;;;;;;3.75;3.35;;;9.50;99.90;;;;;;5025227;28;20147;-62
2024/03/13 07:52:07;;;;;;;4.35;3.20;;;9.50;99.90;;;;;;5026510;28;20049;-62
2024/03/13 07:54:37;;;;;;;4.28;3.40;;;9.50;99.90;;;;;;5028634;28;20041;-62
2024/03/13 07:57:08;;;;;;;5.85;3.40;;;9.50;99.90;;;;;;5026652;28;20068;-62
2024/03/13 07:59:35;;;;;;;4.32;3.50;;;9.50;99.90;;;;;;5024939;28;20050;-62
2024/03/13 08:02:02;;;;;;;6.13;3.70;;;9.50;99.90;;;;;;5027895;28;20041;-62
2024/03/13 08:04:29;;;;;;;5.60;3.10;;;9.60;99.90;;;;;;5029223;28;20107;-62
2024/03/13 08:06:58;;;;;;;4.63;3.20;;;9.60;99.90;;;;;;5030592;28;20084;-62
2024/03/13 08:09:43;;;;;;;5.05;3.60;;;9.70;99.90;;;;;;5028426;28;20119;-62
2024/03/13 08:12:27;;;;;;;4.00;3.47;;;9.70;99.90;;;;;;5025292;28;20051;-62
2024/03/13 08:15:11;;;;;;;4.70;3.70;;;9.80;99.90;;;;;;5027971;28;20040;-62
2024/03/13 08:17:58;;;;;;;7.03;3.20;;;9.90;99.90;;;;;;5031005;28;20509;-62
2024/03/13 08:20:45;;;;;;;4.13;3.22;;;10.10;99.90;;;;;;5029320;28;20148;-62
2024/03/13 08:23:30;;;;;;;5.25;2.70;;;10.20;99.90;;;;;;5024697;28;20142;-62
2024/03/13 08:26:16;;;;;;;4.82;3.10;;;10.30;99.90;;;;;;5026300;28;20146;-62
2024/03/13 08:29:00;;;;;;;5.43;3.10;;;10.40;99.90;;;;;;5013565;28;20075;-62
2024/03/13 08:31:47;;;;;;;3.70;3.03;;;10.40;99.90;;;;;;5028997;28;20128;-60
2024/03/13 08:34:35;;;;;;;4.13;2.80;;;10.40;99.90;;;;;;5029721;28;20048;-62
2024/03/13 08:37:19;;;;;;;7.60;2.90;;;10.40;99.90;;;;;;5026945;28;20037;-62
2024/03/13 08:40:07;;;;;;;4.25;2.97;;;10.30;99.90;;;;;;5028310;28;20134;-62
2024/03/13 08:42:51;;;;;;;4.88;3.47;;;10.30;99.90;;;;;;5026266;28;20469;-62
2024/03/13 08:45:35;;;;;;;4.35;2.42;;;10.30;99.90;;;;;;5027277;28;20041;-62
2024/03/13 08:48:20;;;;;;;3.72;2.88;;;10.30;99.90;;;;;;5026314;28;20529;-62
2024/03/13 08:51:09;;;;;;;4.47;2.92;;;10.40;99.90;;;;;;5027090;28;20033;-62
2024/03/13 08:53:53;;;;;;;4.05;3.40;;;10.40;99.90;;;;;;5024902;28;20500;-62
2024/03/13 08:56:39;;;;;;;4.90;2.75;;;10.40;99.90;;;;;;5025154;28;20533;-62
2024/03/13 08:59:23;;;;;;;5.43;3.30;;;10.40;99.90;;;;;;5025978;28;20578;-62
2024/03/13 09:02:09;;;;;;;7.10;3.30;;;10.40;99.90;;;;;;5028454;28;20056;-62
2024/03/13 09:04:54;;;;;;;6.93;3.40;;;10.40;99.90;;;;;;5023472;28;20068;-62
2024/03/13 09:07:40;;;;;;;4.15;3.05;;;10.50;99.90;;;;;;5029264;28;20120;-62
2024/03/13 09:10:07;;;;;;;5.03;3.70;;;10.40;99.90;;;;;;5029105;28;20048;-62
2024/03/13 09:12:34;;;;;;;6.47;3.38;;;10.50;99.90;;;;;;5028551;28;20050;-62
2024/03/13 09:15:01;;;;;;;7.13;3.25;;;10.50;99.90;;;;;;5028463;28;20048;-62
2024/03/13 09:17:28;;;;;;;4.18;3.10;;;10.60;99.90;;;;;;5028680;28;20045;-62
2024/03/13 09:19:55;;;;;;;6.80;3.17;;;10.60;99.90;;;;;;5028184;28;20520;-62
2024/03/13 09:22:22;;;;;;;3.42;2.80;;;10.60;99.90;;;;;;5029292;28;20073;-62
2024/03/13 09:24:50;;;;;;;5.50;3.22;;;10.60;99.90;;;;;;5027012;28;20116;-62
2024/03/13 09:27:17;;;;;;;5.38;3.55;;;10.60;99.90;;;;;;5025857;28;20053;-62
2024/03/13 09:29:44;;;;;;;7.95;4.18;;;10.60;99.90;;;;;;5027521;28;20502;-60
2024/03/13 09:32:11;;;;;;;4.40;3.42;;;10.60;99.90;;;;;;5027001;28;20053;-62
2024/03/13 09:34:37;;;;;;;4.78;3.40;;;10.60;99.90;;;;;;5027181;28;20559;-62
2024/03/13 09:37:07;;;;;;;5.80;3.20;;;10.60;99.90;;;;;;5028761;28;20111;-62
2024/03/13 09:39:36;;;;;;;4.97;3.50;;;10.60;99.90;;;;;;5028064;28;20041;-62
2024/03/13 09:42:15;;;;;;;4.40;2.85;;;10.70;99.90;;;;;;5028138;28;20119;-62
2024/03/13 09:44:44;;;;;;;6.65;3.63;;;10.70;99.90;;;;;;5026450;28;20053;-63
2024/03/13 09:47:12;;;;;;;4.95;3.72;;;10.90;99.90;;;;;;5028092;28;20148;-62
2024/03/13 09:49:43;;;;;;;5.13;3.60;;;11.00;99.90;;;;;;5028524;28;20061;-62
2024/03/13 09:52:15;;;;;;;4.95;3.65;;;11.00;99.90;;;;;;5026509;28;20057;-62
2024/03/13 09:54:45;;;;;;;6.07;3.17;;;11.00;99.90;;;;;;5028204;28;20059;-62
2024/03/13 09:57:12;;;;;;;3.95;3.20;;;11.10;99.90;;;;;;5027866;28;20049;-63
2024/03/13 09:59:39;;;;;;;5.43;3.42;;;11.10;99.90;;;;;;5026695;28;20064;-62
2024/03/13 10:02:16;;;;;;;4.75;2.90;;;11.10;99.90;;;;;;5026400;28;20049;-63
2024/03/13 10:04:43;;;;;;;5.10;3.72;;;11.20;99.90;;;;;;5028706;28;20045;-62
2024/03/13 10:07:17;;;;;;;5.40;3.30;;;11.10;99.90;;;;;;5028783;28;20077;-62
2024/03/13 10:09:46;;;;;;;5.78;3.40;;;11.10;99.90;;;;;;5026786;28;20054;-62
2024/03/13 10:12:20;;;;;;;7.32;3.30;;;11.10;99.90;;;;;;5027099;28;20104;-62
2024/03/13 10:14:51;;;;;;;3.72;3.33;;;11.10;99.90;;;;;;5027203;28;20099;-62
2024/03/13 10:17:20;;;;;;;5.32;3.45;;;11.10;99.90;;;;;;5025136;28;20088;-62
2024/03/13 10:19:49;;;;;;;5.28;3.47;;;11.30;99.90;;;;;;5026008;28;20045;-62
2024/03/13 10:22:18;;;;;;;7.18;3.45;;;11.40;99.90;;;;;;5023307;28;20041;-62
2024/03/13 10:24:51;;;;;;;3.95;2.78;;;11.60;99.90;;;;;;5026146;28;20056;-62
2024/03/13 10:27:20;;;;;;;4.45;2.72;;;11.70;99.90;;;;;;5025216;28;20085;-62
2024/03/13 10:29:52;;;;;;;2.58;2.25;;;11.70;99.90;;;;;;5027252;28;20049;-62
2024/03/13 10:32:20;;;;;;;6.13;3.03;;;11.80;99.90;;;;;;5022207;28;20045;-62
2024/03/13 10:34:49;;;;;;;4.97;2.60;;;11.80;99.90;;;;;;5028221;28;20053;-63
2024/03/13 10:37:17;;;;;;;6.05;2.60;;;11.90;99.90;;;;;;5027500;28;20069;-62
2024/03/13 10:39:44;;;;;;;3.83;2.33;;;12.00;99.90;;;;;;5026131;28;20158;-62
2024/03/13 10:42:10;;;;;;;4.00;2.53;;;12.10;99.90;;;;;;5028235;28;20157;-62
2024/03/13 10:44:38;;;;;;;3.47;2.28;;;12.30;99.90;;;;;;5028158;28;20056;-62
2024/03/13 10:47:07;;;;;;;2.67;2.40;;;12.40;99.90;;;;;;5027569;28;20072;-62
2024/03/13 10:49:34;;;;;;;2.47;2.13;;;12.50;99.90;;;;;;5009404;28;20149;-62
2024/03/13 10:52:05;;;;;;;2.72;1.90;;;12.60;99.90;;;;;;5026511;28;20049;-62
2024/03/13 10:54:34;;;;;;;2.90;2.00;;;12.70;99.90;;;;;;5027328;28;20053;-61
2024/03/13 10:57:00;;;;;;;3.25;1.92;;;12.70;99.90;;;;;;5025907;28;20045;-62
2024/03/13 10:59:29;;;;;;;4.85;2.10;;;12.70;99.90;;;;;;5026849;28;20133;-62
2024/03/13 11:01:56;;;;;;;3.60;2.38;;;12.80;99.90;;;;;;5026072;28;20049;-62
2024/03/13 11:04:26;;;;;;;4.78;2.13;;;12.70;99.90;;;;;;5028061;28;20517;-62
2024/03/13 11:06:53;;;;;;;3.70;2.05;;;12.80;99.90;;;;;;5026810;28;20470;-62
2024/03/13 11:09:23;;;;;;;2.10;1.90;;;12.80;99.90;;;;;;5027421;28;20136;-62
2024/03/13 11:11:52;;;;;;;2.78;1.90;;;13.00;99.90;;;;;;5027459;28;20057;-62
2024/03/13 11:14:20;;;;;;;;;;;13.10;99.90;;;;;;5024094;28;20052;-62
2024/03/13 11:16:54;;;;;;;2.00;1.55;;;13.20;99.90;;;;;;5027417;28;19925;-62
2024/03/13 11:19:23;;;;;;;2.58;1.60;;;13.30;99.90;;;;;;5023715;28;20136;-62
2024/03/13 11:21:57;;;;;;;3.20;1.75;;;13.30;99.90;;;;;;5025604;28;20307;-62
2024/03/13 11:24:32;;;;;;;2.13;1.80;;;13.30;99.90;;;;;;5026454;28;20148;-62
2024/03/13 11:27:15;;;;;;;2.83;1.60;;;13.40;99.90;;;;;;5026084;28;20048;-62
2024/03/13 11:29:43;;;;;;;2.25;1.73;;;13.60;99.90;;;;;;5024468;28;20129;-62
2024/03/13 11:32:14;;;;;;;3.45;1.55;;;14.00;99.90;;;;;;5026212;28;20092;-62
2024/03/13 11:34:41;;;;;;;;;;;14.20;99.90;;;;;;5024946;28;20057;-62
2024/03/13 11:37:10;;;;;;;2.03;1.40;;;14.30;99.90;;;;;;5025300;28;20038;-62
2024/03/13 11:39:39;;;;;;;2.73;1.70;;;14.60;99.90;;;;;;5026411;28;20049;-62
2024/03/13 11:42:12;;;;;;;1.95;1.63;;;14.70;99.90;;;;;;5026918;28;20771;-62
2024/03/13 11:44:44;;;;;;;1.73;1.40;;;15.00;99.90;;;;;;5026689;28;20061;-62
2024/03/13 11:47:12;;;;;;;1.50;1.40;;;14.80;99.90;;;;;;5026231;28;20041;-63
2024/03/13 11:49:40;;;;;;;2.53;1.75;;;14.90;99.90;;;;;;5025288;28;20065;-62
2024/03/13 11:52:07;;;;;;;2.70;1.70;;;14.80;99.90;;;;;;5025503;28;20050;-63
2024/03/13 11:54:39;;;;;;;2.75;1.60;;;14.90;99.90;;;;;;5025204;28;20053;-63
2024/03/13 11:57:09;;;;;;;1.60;1.25;;;14.90;99.90;;;;;;5024403;28;20071;-63
2024/03/13 11:59:43;;;;;;;;;;;14.90;99.90;;;;;;5026661;28;20054;-63
2024/03/13 12:02:28;;;;;;;2.17;1.30;;;15.20;99.90;;;;;;5026078;28;19929;-63
2024/03/13 12:05:10;;;;;;;2.50;1.40;;;15.30;99.90;;;;;;5023543;28;20057;-62
2024/03/13 12:07:42;;;;;;;1.58;1.25;;;15.30;99.90;;;;;;5025833;28;20476;-62
2024/03/13 12:10:17;;;;;;;1.15;1.08;;;15.40;99.90;;;;;;5025459;28;20088;-62
2024/03/13 12:12:45;;;;;;;2.13;1.42;;;15.70;99.90;;;;;;5026674;28;20049;-63
2024/03/13 12:15:19;;;;;;;1.85;1.73;;;15.90;99.90;;;;;;5025926;28;20058;-62
2024/03/13 12:17:50;;;;;;;1.13;1.00;;;16.10;99.90;;;;;;5026441;28;20140;-63
2024/03/13 12:20:19;;;;;;;1.15;0.98;;;16.00;99.90;;;;;;5022732;28;20056;-62
2024/03/13 12:22:47;;;;;;;1.80;1.23;;;16.00;99.90;;;;;;5024977;28;20501;-62
2024/03/13 12:25:14;;;;;;;2.10;0.93;;;15.90;99.90;;;;;;5026671;28;20106;-62
2024/03/13 12:27:51;;;;;;;2.50;1.23;;;15.80;99.90;;;;;;5026694;28;20057;-62
2024/03/13 12:30:20;;;;;;;1.13;1.00;;;15.80;99.90;;;;;;5023754;28;20076;-63
2024/03/13 12:32:53;;;;;;;3.60;1.30;;;15.90;99.90;;;;;;5025577;28;20566;-63
2024/03/13 12:35:20;;;;;;;2.55;0.98;;;15.90;99.90;;;;;;5022513;28;20077;-63
2024/03/13 12:37:50;;;;;;;1.98;1.30;;;16.00;99.90;;;;;;5025846;28;20123;-63
2024/03/13 12:40:17;;;;;;;3.58;1.50;;;16.10;99.90;;;;;;5027956;28;20096;-63
2024/03/13 12:42:48;;;;;;;1.40;1.27;;;16.00;99.90;;;;;;5029894;28;20052;-63
2024/03/13 12:45:15;;;;;;;2.03;1.17;;;15.90;99.90;;;;;;5030195;28;20107;-63
2024/03/13 12:47:44;;;;;;;3.03;1.45;;;15.90;99.90;;;;;;5030876;28;20136;-63
2024/03/13 12:50:18;;;;;;;1.48;0.98;;;16.00;99.90;;;;;;5029191;28;20057;-63
2024/03/13 12:52:54;;;;;;;3.42;0.98;;;16.10;99.90;;;;;;5030171;28;20399;-63
2024/03/13 12:55:21;;;;;;;1.42;1.20;;;16.10;99.90;;;;;;5027009;28;20129;-63
2024/03/13 12:57:48;;;;;;;1.13;1.02;;;16.10;99.90;;;;;;5026983;28;20053;-63
2024/03/13 13:00:18;;;;;;;1.20;0.80;;;16.10;99.90;;;;;;5029168;28;20510;-63
2024/03/13 13:02:47;;;;;;;2.13;0.88;;;15.90;99.90;;;;;;5030173;28;20085;-63
2024/03/13 13:05:15;;;;;;;1.30;1.10;;;15.80;99.90;;;;;;5029650;28;20140;-63
2024/03/13 13:07:51;;;;;;;1.63;1.25;;;15.70;99.90;;;;;;5030044;28;20406;-63
2024/03/13 13:10:21;;;;;;;1.60;0.85;;;15.70;99.90;;;;;;5030104;28;20045;-63
2024/03/13 13:12:49;;;;;;;4.30;1.52;;;15.60;99.90;;;;;;5029632;28;20199;-63
2024/03/13 13:15:16;;;;;;;2.35;1.10;;;15.80;99.90;;;;;;5027574;28;20056;-63
2024/03/13 13:17:43;;;;;;;1.10;1.00;;;15.80;99.90;;;;;;5012201;28;20430;-63
2024/03/13 13:20:13;;;;;;;1.85;1.00;;;15.90;99.90;;;;;;5029019;28;20060;-62
2024/03/13 13:22:46;;;;;;;3.10;1.15;;;15.90;99.90;;;;;;5027314;28;20077;-63
2024/03/13 13:25:17;;;;;;;1.10;1.00;;;16.00;99.90;;;;;;5026529;28;20045;-62
2024/03/13 13:27:47;;;;;;;2.00;1.02;;;16.20;99.90;;;;;;5026981;28;20480;-63